sensor_id;sensor_type;location;lat;lon;timestamp;pressure;altitude;pressure_sealevel;temperature;humidity
73103;BME280;61294;65.988;29.172;2023-03-31T00:01:29;96611.44;;;-10.10;72.07
73103;BME280;61294;65.988;29.172;2023-03-31T00:03:58;96573.25;;;-10.29;72.30
73103;BME280;61294;65.988;29.172;2023-03-31T00:06:33;96601.13;;;-10.13;72.02
73103;BME280;61294;65.988;29.172;2023-03-31T00:09:04;96601.97;;;-10.12;72.40
73103;BME280;61294;65.988;29.172;2023-03-31T00:11:31;96597.75;;;-10.12;72.16
73103;BME280;61294;65.988;29.172;2023-03-31T00:13:56;96596.88;;;-10.12;71.44
73103;BME280;61294;65.988;29.172;2023-03-31T00:16:22;96519.59;;;-10.55;72.15
73103;BME280;61294;65.988;29.172;2023-03-31T00:18:48;96557.31;;;-10.25;72.84
73103;BME280;61294;65.988;29.172;2023-03-31T00:21:20;96575.72;;;-10.11;73.07
73103;BME280;61294;65.988;29.172;2023-03-31T00:23:53;96555.22;;;-10.14;72.93
73103;BME280;61294;65.988;29.172;2023-03-31T00:26:19;96513.22;;;-10.45;72.78
73103;BME280;61294;65.988;29.172;2023-03-31T00:28:47;96507.88;;;-10.51;73.91
73103;BME280;61294;65.988;29.172;2023-03-31T00:31:13;96522.88;;;-10.38;73.81
73103;BME280;61294;65.988;29.172;2023-03-31T00:33:40;96549.91;;;-10.19;74.69
73103;BME280;61294;65.988;29.172;2023-03-31T00:36:06;96539.81;;;-10.17;75.57
73103;BME280;61294;65.988;29.172;2023-03-31T00:38:32;96536.38;;;-10.18;76.08
73103;BME280;61294;65.988;29.172;2023-03-31T00:40:59;96530.44;;;-10.18;76.75
73103;BME280;61294;65.988;29.172;2023-03-31T00:43:36;96525.28;;;-10.20;78.64
73103;BME280;61294;65.988;29.172;2023-03-31T00:46:17;96475.72;;;-10.49;80.46
73103;BME280;61294;65.988;29.172;2023-03-31T00:48:50;96513.78;;;-10.31;80.74
73103;BME280;61294;65.988;29.172;2023-03-31T00:51:17;96500.16;;;-10.32;83.30
73103;BME280;61294;65.988;29.172;2023-03-31T00:53:45;96500.09;;;-10.33;83.67
73103;BME280;61294;65.988;29.172;2023-03-31T00:56:15;96484.09;;;-10.31;85.02
73103;BME280;61294;65.988;29.172;2023-03-31T00:58:43;96487.38;;;-10.33;83.80
73103;BME280;61294;65.988;29.172;2023-03-31T01:01:14;96488.31;;;-10.31;84.56
73103;BME280;61294;65.988;29.172;2023-03-31T01:03:42;96472.22;;;-10.30;84.36
73103;BME280;61294;65.988;29.172;2023-03-31T01:06:10;96474.91;;;-10.27;84.24
73103;BME280;61294;65.988;29.172;2023-03-31T01:08:37;96473.97;;;-10.29;83.42
73103;BME280;61294;65.988;29.172;2023-03-31T01:11:05;96404.53;;;-10.48;83.75
73103;BME280;61294;65.988;29.172;2023-03-31T01:13:35;96437.47;;;-10.30;83.50
73103;BME280;61294;65.988;29.172;2023-03-31T01:16:01;96453.94;;;-10.21;83.72
73103;BME280;61294;65.988;29.172;2023-03-31T01:18:29;96428.88;;;-10.32;83.54
73103;BME280;61294;65.988;29.172;2023-03-31T01:27:07;96422.13;;;-10.31;91.93
73103;BME280;61294;65.988;29.172;2023-03-31T01:32:54;96403.16;;;-10.39;93.39
73103;BME280;61294;65.988;29.172;2023-03-31T01:41:22;96393.63;;;-10.45;92.70
73103;BME280;61294;65.988;29.172;2023-03-31T01:46:47;96407.59;;;-10.35;93.29
73103;BME280;61294;65.988;29.172;2023-03-31T01:52:06;96380.88;;;-10.45;94.83
73103;BME280;61294;65.988;29.172;2023-03-31T01:54:39;96394.69;;;-10.40;94.80
73103;BME280;61294;65.988;29.172;2023-03-31T02:00:10;96364.06;;;-10.42;95.39
73103;BME280;61294;65.988;29.172;2023-03-31T02:02:42;96294.53;;;-10.84;95.67
73103;BME280;61294;65.988;29.172;2023-03-31T02:05:21;96379.47;;;-10.38;95.97
73103;BME280;61294;65.988;29.172;2023-03-31T02:08:04;96376.97;;;-10.37;96.84
73103;BME280;61294;65.988;29.172;2023-03-31T02:10:32;96335.69;;;-10.51;98.07
73103;BME280;61294;65.988;29.172;2023-03-31T02:13:00;96364.31;;;-10.35;97.67
73103;BME280;61294;65.988;29.172;2023-03-31T02:15:31;96365.06;;;-10.38;98.04
73103;BME280;61294;65.988;29.172;2023-03-31T02:18:02;96354.00;;;-10.38;98.73
73103;BME280;61294;65.988;29.172;2023-03-31T02:20:31;96348.09;;;-10.37;99.46
73103;BME280;61294;65.988;29.172;2023-03-31T02:22:58;96276.84;;;-10.81;100.00
73103;BME280;61294;65.988;29.172;2023-03-31T02:25:30;96360.81;;;-10.37;100.00
73103;BME280;61294;65.988;29.172;2023-03-31T02:28:07;96293.41;;;-10.70;100.00
73103;BME280;61294;65.988;29.172;2023-03-31T02:31:04;96346.38;;;-10.38;100.00
73103;BME280;61294;65.988;29.172;2023-03-31T02:33:32;96322.97;;;-10.51;100.00
73103;BME280;61294;65.988;29.172;2023-03-31T02:35:58;96328.97;;;-10.49;100.00
73103;BME280;61294;65.988;29.172;2023-03-31T02:38:25;96261.66;;;-10.80;100.00
73103;BME280;61294;65.988;29.172;2023-03-31T02:40:51;96323.47;;;-10.38;100.00
73103;BME280;61294;65.988;29.172;2023-03-31T02:43:17;96335.38;;;-10.37;100.00
73103;BME280;61294;65.988;29.172;2023-03-31T02:45:47;96318.25;;;-10.42;100.00
73103;BME280;61294;65.988;29.172;2023-03-31T03:02:04;96271.41;;;-10.47;100.00
73103;BME280;61294;65.988;29.172;2023-03-31T03:07:40;96295.66;;;-10.32;100.00
73103;BME280;61294;65.988;29.172;2023-03-31T03:10:21;96276.09;;;-10.33;100.00
73103;BME280;61294;65.988;29.172;2023-03-31T03:15:46;96279.69;;;-10.28;100.00
73103;BME280;61294;65.988;29.172;2023-03-31T03:18:13;96186.38;;;-10.74;100.00
73103;BME280;61294;65.988;29.172;2023-03-31T03:20:41;96244.63;;;-10.37;100.00
73103;BME280;61294;65.988;29.172;2023-03-31T03:23:14;96264.66;;;-10.22;100.00
73103;BME280;61294;65.988;29.172;2023-03-31T03:25:40;96226.56;;;-10.43;100.00
73103;BME280;61294;65.988;29.172;2023-03-31T03:28:06;96265.63;;;-10.18;100.00
73103;BME280;61294;65.988;29.172;2023-03-31T03:30:32;96244.88;;;-10.29;100.00
73103;BME280;61294;65.988;29.172;2023-03-31T03:32:58;96246.94;;;-10.19;100.00
73103;BME280;61294;65.988;29.172;2023-03-31T03:35:24;96247.06;;;-10.16;100.00
73103;BME280;61294;65.988;29.172;2023-03-31T03:37:50;96236.06;;;-10.15;100.00
73103;BME280;61294;65.988;29.172;2023-03-31T03:40:16;96191.91;;;-10.39;100.00
73103;BME280;61294;65.988;29.172;2023-03-31T03:42:41;96240.44;;;-10.11;100.00
73103;BME280;61294;65.988;29.172;2023-03-31T03:45:08;96228.47;;;-10.13;100.00
73103;BME280;61294;65.988;29.172;2023-03-31T03:47:34;96203.44;;;-10.25;100.00
73103;BME280;61294;65.988;29.172;2023-03-31T03:50:01;96238.16;;;-10.04;100.00
73103;BME280;61294;65.988;29.172;2023-03-31T03:52:28;96217.78;;;-10.04;100.00
73103;BME280;61294;65.988;29.172;2023-03-31T03:54:53;96210.13;;;-10.04;100.00
73103;BME280;61294;65.988;29.172;2023-03-31T03:57:20;96214.63;;;-9.97;100.00
73103;BME280;61294;65.988;29.172;2023-03-31T03:59:46;96217.38;;;-9.91;100.00
73103;BME280;61294;65.988;29.172;2023-03-31T04:02:12;96212.38;;;-9.88;100.00
73103;BME280;61294;65.988;29.172;2023-03-31T04:04:37;96169.59;;;-9.98;100.00
73103;BME280;61294;65.988;29.172;2023-03-31T04:07:03;96174.13;;;-9.90;100.00
73103;BME280;61294;65.988;29.172;2023-03-31T04:09:30;96202.84;;;-9.69;100.00
73103;BME280;61294;65.988;29.172;2023-03-31T04:11:55;96156.53;;;-9.82;100.00
73103;BME280;61294;65.988;29.172;2023-03-31T04:14:21;96176.50;;;-9.70;100.00
73103;BME280;61294;65.988;29.172;2023-03-31T04:16:47;96197.41;;;-9.55;100.00
73103;BME280;61294;65.988;29.172;2023-03-31T04:19:13;96189.84;;;-9.51;100.00
73103;BME280;61294;65.988;29.172;2023-03-31T04:21:42;96187.50;;;-9.45;100.00
73103;BME280;61294;65.988;29.172;2023-03-31T04:24:10;96181.75;;;-9.40;100.00
73103;BME280;61294;65.988;29.172;2023-03-31T04:26:46;96149.84;;;-9.54;100.00
73103;BME280;61294;65.988;29.172;2023-03-31T04:29:15;96142.09;;;-9.57;100.00
73103;BME280;61294;65.988;29.172;2023-03-31T04:31:42;96184.59;;;-9.30;100.00
73103;BME280;61294;65.988;29.172;2023-03-31T04:34:13;96188.91;;;-9.28;100.00
73103;BME280;61294;65.988;29.172;2023-03-31T04:36:41;96184.84;;;-9.23;100.00
73103;BME280;61294;65.988;29.172;2023-03-31T04:39:12;96183.19;;;-9.21;100.00
73103;BME280;61294;65.988;29.172;2023-03-31T04:41:38;96168.78;;;-9.20;100.00
73103;BME280;61294;65.988;29.172;2023-03-31T04:44:04;96133.88;;;-9.48;100.00
73103;BME280;61294;65.988;29.172;2023-03-31T04:46:31;96166.31;;;-9.17;100.00
73103;BME280;61294;65.988;29.172;2023-03-31T04:48:57;96117.38;;;-9.32;100.00
73103;BME280;61294;65.988;29.172;2023-03-31T04:51:23;96127.03;;;-9.22;100.00
73103;BME280;61294;65.988;29.172;2023-03-31T04:53:50;96163.38;;;-9.02;100.00
73103;BME280;61294;65.988;29.172;2023-03-31T04:56:15;96130.75;;;-9.12;100.00
73103;BME280;61294;65.988;29.172;2023-03-31T04:58:41;96114.69;;;-9.10;100.00
73103;BME280;61294;65.988;29.172;2023-03-31T05:01:08;96121.16;;;-8.92;100.00
73103;BME280;61294;65.988;29.172;2023-03-31T05:03:38;96154.97;;;-8.71;100.00
73103;BME280;61294;65.988;29.172;2023-03-31T05:06:04;96075.63;;;-9.09;100.00
73103;BME280;61294;65.988;29.172;2023-03-31T05:08:30;96070.69;;;-9.03;100.00
73103;BME280;61294;65.988;29.172;2023-03-31T05:10:56;96141.03;;;-8.53;100.00
73103;BME280;61294;65.988;29.172;2023-03-31T05:13:22;96095.63;;;-8.92;100.00
73103;BME280;61294;65.988;29.172;2023-03-31T05:15:48;96107.22;;;-8.75;100.00
73103;BME280;61294;65.988;29.172;2023-03-31T05:18:16;96146.00;;;-8.58;100.00
73103;BME280;61294;65.988;29.172;2023-03-31T05:20:42;96075.22;;;-8.92;100.00
73103;BME280;61294;65.988;29.172;2023-03-31T05:23:08;96131.63;;;-8.54;100.00
73103;BME280;61294;65.988;29.172;2023-03-31T05:25:34;96104.19;;;-8.61;100.00
73103;BME280;61294;65.988;29.172;2023-03-31T05:28:00;96142.22;;;-8.40;100.00
73103;BME280;61294;65.988;29.172;2023-03-31T05:30:27;96089.16;;;-8.52;100.00
73103;BME280;61294;65.988;29.172;2023-03-31T05:32:54;96045.03;;;-8.78;100.00
73103;BME280;61294;65.988;29.172;2023-03-31T05:35:20;96136.53;;;-8.30;100.00
73103;BME280;61294;65.988;29.172;2023-03-31T05:37:46;96115.97;;;-8.35;100.00
73103;BME280;61294;65.988;29.172;2023-03-31T05:40:12;96114.25;;;-8.36;100.00
73103;BME280;61294;65.988;29.172;2023-03-31T05:42:38;96089.84;;;-8.58;100.00
73103;BME280;61294;65.988;29.172;2023-03-31T05:45:04;96128.09;;;-8.27;100.00
73103;BME280;61294;65.988;29.172;2023-03-31T05:47:30;96076.16;;;-8.60;100.00
73103;BME280;61294;65.988;29.172;2023-03-31T05:49:56;96117.06;;;-8.26;100.00
73103;BME280;61294;65.988;29.172;2023-03-31T05:52:22;96108.53;;;-8.27;100.00
73103;BME280;61294;65.988;29.172;2023-03-31T05:54:48;96066.72;;;-8.30;100.00
73103;BME280;61294;65.988;29.172;2023-03-31T05:57:14;96127.19;;;-7.98;100.00
73103;BME280;61294;65.988;29.172;2023-03-31T05:59:40;96077.63;;;-8.04;100.00
73103;BME280;61294;65.988;29.172;2023-03-31T06:02:07;96121.53;;;-7.86;100.00
73103;BME280;61294;65.988;29.172;2023-03-31T06:04:33;96110.69;;;-7.77;100.00
73103;BME280;61294;65.988;29.172;2023-03-31T06:06:59;96095.47;;;-7.72;100.00
73103;BME280;61294;65.988;29.172;2023-03-31T06:09:25;96068.78;;;-7.84;100.00
73103;BME280;61294;65.988;29.172;2023-03-31T06:11:51;96078.50;;;-7.69;100.00
73103;BME280;61294;65.988;29.172;2023-03-31T06:14:17;96080.47;;;-7.58;100.00
73103;BME280;61294;65.988;29.172;2023-03-31T06:16:42;96122.53;;;-7.46;100.00
73103;BME280;61294;65.988;29.172;2023-03-31T06:19:08;96110.28;;;-7.59;100.00
73103;BME280;61294;65.988;29.172;2023-03-31T06:21:34;96119.03;;;-7.51;100.00
73103;BME280;61294;65.988;29.172;2023-03-31T06:24:00;96115.66;;;-7.48;100.00
73103;BME280;61294;65.988;29.172;2023-03-31T06:26:26;96102.97;;;-7.45;100.00
73103;BME280;61294;65.988;29.172;2023-03-31T06:28:52;96130.41;;;-7.38;100.00
73103;BME280;61294;65.988;29.172;2023-03-31T06:31:21;96125.44;;;-7.32;100.00
73103;BME280;61294;65.988;29.172;2023-03-31T06:33:47;96094.97;;;-7.57;100.00
73103;BME280;61294;65.988;29.172;2023-03-31T06:36:15;96117.44;;;-7.44;100.00
73103;BME280;61294;65.988;29.172;2023-03-31T06:38:42;96128.44;;;-7.48;100.00
73103;BME280;61294;65.988;29.172;2023-03-31T06:41:10;96136.44;;;-7.34;100.00
73103;BME280;61294;65.988;29.172;2023-03-31T06:43:36;96131.41;;;-7.31;100.00
73103;BME280;61294;65.988;29.172;2023-03-31T06:46:02;96109.41;;;-7.24;100.00
73103;BME280;61294;65.988;29.172;2023-03-31T06:48:28;96054.56;;;-7.36;100.00
73103;BME280;61294;65.988;29.172;2023-03-31T06:50:57;96100.44;;;-7.05;100.00
73103;BME280;61294;65.988;29.172;2023-03-31T06:53:24;96135.97;;;-6.81;100.00
73103;BME280;61294;65.988;29.172;2023-03-31T06:55:50;96118.09;;;-6.80;100.00
73103;BME280;61294;65.988;29.172;2023-03-31T06:58:16;96141.53;;;-7.01;100.00
73103;BME280;61294;65.988;29.172;2023-03-31T07:00:42;96141.47;;;-7.02;100.00
73103;BME280;61294;65.988;29.172;2023-03-31T07:03:10;96137.28;;;-6.99;100.00
73103;BME280;61294;65.988;29.172;2023-03-31T07:05:36;96102.16;;;-7.06;100.00
73103;BME280;61294;65.988;29.172;2023-03-31T07:08:03;96099.41;;;-7.15;100.00
73103;BME280;61294;65.988;29.172;2023-03-31T07:10:30;96135.44;;;-6.66;100.00
73103;BME280;61294;65.988;29.172;2023-03-31T07:12:56;96133.88;;;-6.61;100.00
73103;BME280;61294;65.988;29.172;2023-03-31T07:15:23;96091.47;;;-6.88;100.00
73103;BME280;61294;65.988;29.172;2023-03-31T07:17:48;96156.00;;;-6.63;100.00
73103;BME280;61294;65.988;29.172;2023-03-31T07:20:26;96150.50;;;-6.80;100.00
73103;BME280;61294;65.988;29.172;2023-03-31T07:22:52;96131.56;;;-6.87;100.00
73103;BME280;61294;65.988;29.172;2023-03-31T07:25:18;96150.84;;;-6.65;100.00
73103;BME280;61294;65.988;29.172;2023-03-31T07:27:44;96122.56;;;-6.71;100.00
73103;BME280;61294;65.988;29.172;2023-03-31T07:30:18;96148.53;;;-6.54;100.00
73103;BME280;61294;65.988;29.172;2023-03-31T07:32:47;96159.31;;;-6.28;100.00
73103;BME280;61294;65.988;29.172;2023-03-31T07:35:13;96143.59;;;-6.45;100.00
73103;BME280;61294;65.988;29.172;2023-03-31T07:37:41;96165.53;;;-6.16;100.00
73103;BME280;61294;65.988;29.172;2023-03-31T07:40:20;96169.97;;;-6.08;100.00
73103;BME280;61294;65.988;29.172;2023-03-31T07:42:46;96118.41;;;-6.23;100.00
73103;BME280;61294;65.988;29.172;2023-03-31T07:45:14;96165.91;;;-5.95;100.00
73103;BME280;61294;65.988;29.172;2023-03-31T07:47:41;96161.72;;;-5.91;100.00
73103;BME280;61294;65.988;29.172;2023-03-31T07:50:08;96166.41;;;-6.14;100.00
73103;BME280;61294;65.988;29.172;2023-03-31T07:52:34;96144.16;;;-6.18;100.00
73103;BME280;61294;65.988;29.172;2023-03-31T07:54:59;96143.31;;;-6.16;100.00
73103;BME280;61294;65.988;29.172;2023-03-31T07:57:25;96185.31;;;-6.09;100.00
73103;BME280;61294;65.988;29.172;2023-03-31T07:59:51;96143.91;;;-6.29;100.00
73103;BME280;61294;65.988;29.172;2023-03-31T08:02:17;96191.09;;;-5.75;100.00
73103;BME280;61294;65.988;29.172;2023-03-31T08:04:44;96176.91;;;-5.56;100.00
73103;BME280;61294;65.988;29.172;2023-03-31T08:07:12;96161.44;;;-5.61;100.00
73103;BME280;61294;65.988;29.172;2023-03-31T08:09:39;96149.38;;;-5.65;100.00
73103;BME280;61294;65.988;29.172;2023-03-31T08:12:05;96181.09;;;-5.61;100.00
73103;BME280;61294;65.988;29.172;2023-03-31T08:14:31;96171.72;;;-6.05;100.00
73103;BME280;61294;65.988;29.172;2023-03-31T08:16:57;96178.81;;;-5.90;100.00
73103;BME280;61294;65.988;29.172;2023-03-31T08:19:25;96206.78;;;-5.60;100.00
73103;BME280;61294;65.988;29.172;2023-03-31T08:21:51;96205.13;;;-5.55;100.00
73103;BME280;61294;65.988;29.172;2023-03-31T08:24:17;96213.09;;;-5.86;100.00
73103;BME280;61294;65.988;29.172;2023-03-31T08:26:43;96202.53;;;-6.03;100.00
73103;BME280;61294;65.988;29.172;2023-03-31T08:29:09;96217.69;;;-5.70;100.00
73103;BME280;61294;65.988;29.172;2023-03-31T08:31:35;96218.75;;;-5.59;100.00
73103;BME280;61294;65.988;29.172;2023-03-31T08:34:01;96196.22;;;-5.28;100.00
73103;BME280;61294;65.988;29.172;2023-03-31T08:36:27;96223.16;;;-5.04;100.00
73103;BME280;61294;65.988;29.172;2023-03-31T08:38:54;96221.41;;;-5.07;100.00
73103;BME280;61294;65.988;29.172;2023-03-31T08:41:26;96221.31;;;-5.11;100.00
73103;BME280;61294;65.988;29.172;2023-03-31T08:43:56;96236.69;;;-5.14;100.00
73103;BME280;61294;65.988;29.172;2023-03-31T08:46:26;96252.66;;;-5.29;100.00
73103;BME280;61294;65.988;29.172;2023-03-31T08:48:56;96242.63;;;-5.15;100.00
73103;BME280;61294;65.988;29.172;2023-03-31T08:51:26;96256.13;;;-5.27;100.00
73103;BME280;61294;65.988;29.172;2023-03-31T08:54:02;96225.69;;;-5.53;100.00
73103;BME280;61294;65.988;29.172;2023-03-31T08:56:33;96263.66;;;-5.35;100.00
73103;BME280;61294;65.988;29.172;2023-03-31T08:59:03;96255.81;;;-5.44;100.00
73103;BME280;61294;65.988;29.172;2023-03-31T09:01:48;96261.72;;;-5.48;100.00
73103;BME280;61294;65.988;29.172;2023-03-31T09:12:55;96270.63;;;-5.28;100.00
73103;BME280;61294;65.988;29.172;2023-03-31T09:16:07;96275.63;;;-5.35;100.00
73103;BME280;61294;65.988;29.172;2023-03-31T09:18:32;96280.97;;;-5.25;100.00
73103;BME280;61294;65.988;29.172;2023-03-31T09:26:57;96261.91;;;-5.38;100.00
73103;BME280;61294;65.988;29.172;2023-03-31T09:31:55;96293.69;;;-5.31;100.00
73103;BME280;61294;65.988;29.172;2023-03-31T09:34:31;96307.69;;;-5.13;100.00
73103;BME280;61294;65.988;29.172;2023-03-31T09:36:58;96282.59;;;-5.30;100.00
73103;BME280;61294;65.988;29.172;2023-03-31T09:39:23;96268.34;;;-5.58;100.00
73103;BME280;61294;65.988;29.172;2023-03-31T09:41:51;96312.09;;;-5.50;100.00
73103;BME280;61294;65.988;29.172;2023-03-31T09:44:38;96310.31;;;-5.55;100.00
73103;BME280;61294;65.988;29.172;2023-03-31T09:47:19;96320.47;;;-5.16;100.00
73103;BME280;61294;65.988;29.172;2023-03-31T09:49:46;96315.63;;;-5.01;100.00
73103;BME280;61294;65.988;29.172;2023-03-31T09:52:30;96297.63;;;-5.03;100.00
73103;BME280;61294;65.988;29.172;2023-03-31T09:55:02;96303.47;;;-5.11;100.00
73103;BME280;61294;65.988;29.172;2023-03-31T09:57:36;96324.41;;;-4.90;100.00
73103;BME280;61294;65.988;29.172;2023-03-31T10:00:14;96332.22;;;-4.82;100.00
73103;BME280;61294;65.988;29.172;2023-03-31T10:02:54;96351.06;;;-4.83;100.00
73103;BME280;61294;65.988;29.172;2023-03-31T10:05:29;96324.44;;;-4.87;100.00
73103;BME280;61294;65.988;29.172;2023-03-31T10:08:37;96352.19;;;-4.67;100.00
73103;BME280;61294;65.988;29.172;2023-03-31T10:16:33;96328.72;;;-4.87;100.00
73103;BME280;61294;65.988;29.172;2023-03-31T10:19:27;96351.69;;;-4.47;100.00
73103;BME280;61294;65.988;29.172;2023-03-31T10:22:05;96366.63;;;-4.23;100.00
73103;BME280;61294;65.988;29.172;2023-03-31T10:24:39;96375.84;;;-4.36;100.00
73103;BME280;61294;65.988;29.172;2023-03-31T10:27:15;96370.16;;;-4.18;100.00
73103;BME280;61294;65.988;29.172;2023-03-31T10:29:43;96373.22;;;-3.87;100.00
73103;BME280;61294;65.988;29.172;2023-03-31T10:32:22;96368.81;;;-3.35;100.00
73103;BME280;61294;65.988;29.172;2023-03-31T10:34:50;96372.91;;;-2.77;100.00
73103;BME280;61294;65.988;29.172;2023-03-31T10:37:18;96375.19;;;-2.17;100.00
73103;BME280;61294;65.988;29.172;2023-03-31T10:39:47;96369.22;;;-2.12;97.67
73103;BME280;61294;65.988;29.172;2023-03-31T10:42:21;96386.31;;;-2.23;97.02
73103;BME280;61294;65.988;29.172;2023-03-31T10:44:47;96342.47;;;-2.24;96.31
73103;BME280;61294;65.988;29.172;2023-03-31T10:49:41;96387.94;;;-2.36;94.35
73103;BME280;61294;65.988;29.172;2023-03-31T10:52:17;96393.09;;;-2.36;95.60
73103;BME280;61294;65.988;29.172;2023-03-31T10:54:52;96399.75;;;-2.56;96.54
73103;BME280;61294;65.988;29.172;2023-03-31T10:57:30;96399.72;;;-2.60;97.08
73103;BME280;61294;65.988;29.172;2023-03-31T11:00:24;96393.66;;;-1.66;93.90
73103;BME280;61294;65.988;29.172;2023-03-31T11:03:21;96411.06;;;-1.36;91.97
73103;BME280;61294;65.988;29.172;2023-03-31T11:06:09;96405.97;;;-1.27;88.22
73103;BME280;61294;65.988;29.172;2023-03-31T11:08:59;96414.66;;;-1.14;88.27
73103;BME280;61294;65.988;29.172;2023-03-31T11:14:25;96422.28;;;-1.31;86.35
73103;BME280;61294;65.988;29.172;2023-03-31T11:17:18;96397.13;;;-1.61;86.07
73103;BME280;61294;65.988;29.172;2023-03-31T11:20:14;96423.34;;;-2.19;89.79
73103;BME280;61294;65.988;29.172;2023-03-31T11:25:24;96443.91;;;-1.18;85.45
73103;BME280;61294;65.988;29.172;2023-03-31T11:33:46;96419.41;;;-1.73;88.99
73103;BME280;61294;65.988;29.172;2023-03-31T11:39:09;96429.94;;;-1.46;85.41
73103;BME280;61294;65.988;29.172;2023-03-31T11:41:43;96449.16;;;-0.99;84.44
73103;BME280;61294;65.988;29.172;2023-03-31T11:44:14;96451.75;;;-0.99;83.42
73103;BME280;61294;65.988;29.172;2023-03-31T11:46:53;96447.31;;;-1.19;83.11
73103;BME280;61294;65.988;29.172;2023-03-31T11:49:40;96437.44;;;0.25;78.36
73103;BME280;61294;65.988;29.172;2023-03-31T11:52:14;96438.09;;;-0.63;80.86
73103;BME280;61294;65.988;29.172;2023-03-31T11:54:55;96417.50;;;-0.38;82.24
73103;BME280;61294;65.988;29.172;2023-03-31T11:57:39;96436.78;;;2.15;72.54
73103;BME280;61294;65.988;29.172;2023-03-31T12:05:42;96451.19;;;0.92;74.43
73103;BME280;61294;65.988;29.172;2023-03-31T12:08:30;96447.75;;;-0.11;78.05
73103;BME280;61294;65.988;29.172;2023-03-31T12:11:04;96458.69;;;-0.89;82.27
73103;BME280;61294;65.988;29.172;2023-03-31T12:13:53;96463.59;;;-1.34;85.01
73103;BME280;61294;65.988;29.172;2023-03-31T12:16:30;96437.66;;;-1.49;88.05
73103;BME280;61294;65.988;29.172;2023-03-31T12:19:15;96457.41;;;-1.56;88.16
73103;BME280;61294;65.988;29.172;2023-03-31T12:22:40;96467.72;;;-1.58;88.46
73103;BME280;61294;65.988;29.172;2023-03-31T12:24:41;96465.38;;;-1.27;90.72
73103;BME280;61294;65.988;29.172;2023-03-31T12:27:17;96452.47;;;-1.22;91.63
73103;BME280;61294;65.988;29.172;2023-03-31T12:32:54;96467.16;;;-1.18;89.94
73103;BME280;61294;65.988;29.172;2023-03-31T12:40:51;96477.47;;;-1.23;91.74
73103;BME280;61294;65.988;29.172;2023-03-31T12:43:27;96464.31;;;-1.53;91.89
73103;BME280;61294;65.988;29.172;2023-03-31T12:52:13;96467.69;;;-1.64;93.22
73103;BME280;61294;65.988;29.172;2023-03-31T12:57:25;96487.44;;;-1.67;92.04
73103;BME280;61294;65.988;29.172;2023-03-31T13:02:34;96500.31;;;-1.70;95.31
73103;BME280;61294;65.988;29.172;2023-03-31T13:08:02;96503.56;;;-1.93;95.34
73103;BME280;61294;65.988;29.172;2023-03-31T13:10:32;96479.22;;;-2.15;94.93
73103;BME280;61294;65.988;29.172;2023-03-31T13:15:24;96518.06;;;-2.03;87.93
73103;BME280;61294;65.988;29.172;2023-03-31T13:17:57;96506.91;;;-2.02;85.83
73103;BME280;61294;65.988;29.172;2023-03-31T13:20:36;96518.91;;;-2.04;85.25
73103;BME280;61294;65.988;29.172;2023-03-31T13:23:19;96519.78;;;-2.03;85.73
73103;BME280;61294;65.988;29.172;2023-03-31T13:25:51;96529.50;;;-1.79;88.12
73103;BME280;61294;65.988;29.172;2023-03-31T13:28:25;96538.41;;;-1.45;86.75
73103;BME280;61294;65.988;29.172;2023-03-31T13:30:57;96532.31;;;-1.50;84.49
73103;BME280;61294;65.988;29.172;2023-03-31T13:47:29;96562.66;;;-2.16;91.62
73103;BME280;61294;65.988;29.172;2023-03-31T13:50:11;96576.44;;;-2.13;91.47
73103;BME280;61294;65.988;29.172;2023-03-31T13:53:14;96566.91;;;-2.20;94.54
73103;BME280;61294;65.988;29.172;2023-03-31T13:56:07;96578.50;;;-2.54;97.18
73103;BME280;61294;65.988;29.172;2023-03-31T13:58:47;96579.28;;;-2.62;99.76
73103;BME280;61294;65.988;29.172;2023-03-31T14:06:52;96582.63;;;-2.67;100.00
73103;BME280;61294;65.988;29.172;2023-03-31T14:09:31;96573.09;;;-2.73;100.00
73103;BME280;61294;65.988;29.172;2023-03-31T14:11:58;96588.53;;;-2.74;100.00
73103;BME280;61294;65.988;29.172;2023-03-31T14:14:24;96547.16;;;-2.84;100.00
73103;BME280;61294;65.988;29.172;2023-03-31T14:16:59;96552.56;;;-2.65;100.00
73103;BME280;61294;65.988;29.172;2023-03-31T14:19:44;96594.25;;;-2.33;100.00
73103;BME280;61294;65.988;29.172;2023-03-31T14:23:05;96568.00;;;-2.67;100.00
73103;BME280;61294;65.988;29.172;2023-03-31T14:28:02;96560.97;;;-2.80;100.00
73103;BME280;61294;65.988;29.172;2023-03-31T14:35:39;96594.78;;;-2.57;100.00
73103;BME280;61294;65.988;29.172;2023-03-31T14:38:16;96574.06;;;-2.66;100.00
73103;BME280;61294;65.988;29.172;2023-03-31T14:40:48;96543.78;;;-2.81;100.00
73103;BME280;61294;65.988;29.172;2023-03-31T14:43:24;96569.75;;;-2.66;100.00
73103;BME280;61294;65.988;29.172;2023-03-31T14:46:20;96557.47;;;-2.84;100.00
73103;BME280;61294;65.988;29.172;2023-03-31T14:48:47;96572.13;;;-2.81;100.00
73103;BME280;61294;65.988;29.172;2023-03-31T14:51:33;96596.06;;;-2.88;100.00
73103;BME280;61294;65.988;29.172;2023-03-31T14:54:00;96589.03;;;-2.99;100.00
73103;BME280;61294;65.988;29.172;2023-03-31T14:56:47;96573.41;;;-3.09;100.00
73103;BME280;61294;65.988;29.172;2023-03-31T14:59:21;96601.72;;;-3.11;100.00
73103;BME280;61294;65.988;29.172;2023-03-31T15:01:49;96596.63;;;-3.08;100.00
73103;BME280;61294;65.988;29.172;2023-03-31T15:04:18;96600.88;;;-3.10;100.00
73103;BME280;61294;65.988;29.172;2023-03-31T15:06:46;96604.22;;;-3.17;100.00
73103;BME280;61294;65.988;29.172;2023-03-31T15:09:32;96601.63;;;-3.17;100.00
73103;BME280;61294;65.988;29.172;2023-03-31T15:12:02;96578.38;;;-3.23;100.00
73103;BME280;61294;65.988;29.172;2023-03-31T15:14:30;96610.47;;;-3.01;100.00
73103;BME280;61294;65.988;29.172;2023-03-31T15:16:58;96606.41;;;-2.85;100.00
73103;BME280;61294;65.988;29.172;2023-03-31T15:19:34;96620.31;;;-2.74;100.00
73103;BME280;61294;65.988;29.172;2023-03-31T15:22:14;96609.91;;;-2.83;100.00